Time;durP1;ratioP1;P1;durP2;ratioP2;P2;SDS_P1;SDS_P2;PMS_P1;PMS_P2;Temp;Humidity;BMP_temperature;BMP_pressure;BME280_temperature;BME280_humidity;BME280_pressure;Samples;Min_cycle;Max_cycle;Signal;HPM_P1;HPM_P2
2021/08/22 00:00:37;;;;;;;6.40;3.80;;;;;;;13.78;75.86;101979.16;5040487;28;20029;-48
2021/08/22 00:03:03;;;;;;;5.55;3.50;;;;;;;13.78;75.83;101973.78;5037579;28;20528;-47
2021/08/22 00:05:29;;;;;;;4.93;3.13;;;;;;;13.76;75.96;101978.59;5043398;28;20495;-47
2021/08/22 00:07:55;;;;;;;17.90;12.80;;;;;;;13.73;75.87;101979.06;5039797;28;20554;-47
2021/08/22 00:10:21;;;;;;;9.30;6.75;;;;;;;13.72;75.83;101975.56;5043933;28;22010;-47
2021/08/22 00:12:47;;;;;;;8.13;4.05;;;;;;;13.70;75.91;101974.16;5041529;28;20782;-45
2021/08/22 00:15:13;;;;;;;4.45;3.22;;;;;;;13.71;75.84;101967.72;5041719;28;20033;-47
2021/08/22 00:17:38;;;;;;;6.13;3.63;;;;;;;13.73;75.67;101976.38;5039859;28;20064;-47
2021/08/22 00:20:05;;;;;;;5.88;3.65;;;;;;;13.71;75.76;101979.31;5042384;28;20573;-46
2021/08/22 00:22:31;;;;;;;6.13;3.45;;;;;;;13.69;75.82;101972.53;5044712;28;20021;-47
2021/08/22 00:24:56;;;;;;;4.25;3.55;;;;;;;13.68;75.89;101978.97;5045366;28;20379;-48
2021/08/22 00:27:22;;;;;;;5.20;3.75;;;;;;;13.63;75.80;101976.16;5043481;28;20029;-46
2021/08/22 00:29:47;;;;;;;6.22;3.95;;;;;;;13.58;75.89;101969.63;5045177;28;20057;-47
2021/08/22 00:32:13;;;;;;;5.20;3.65;;;;;;;13.51;76.20;101968.94;5043848;28;20028;-46
2021/08/22 00:34:38;;;;;;;6.85;3.83;;;;;;;13.44;76.54;101973.63;5040593;28;20083;-46
2021/08/22 00:37:04;;;;;;;6.93;4.43;;;;;;;13.39;76.73;101967.31;5042865;28;20021;-48
2021/08/22 00:39:30;;;;;;;8.13;4.40;;;;;;;13.30;76.89;101965.00;5043257;28;20095;-46
2021/08/22 00:41:56;;;;;;;5.10;4.05;;;;;;;13.28;77.16;101967.13;5044859;28;20021;-47
2021/08/22 00:44:22;;;;;;;6.78;3.60;;;;;;;13.22;77.23;101967.22;5039316;28;20043;-46
2021/08/22 00:46:51;;;;;;;6.90;3.90;;;;;;;13.24;77.33;101967.81;5045199;28;20029;-46
2021/08/22 00:49:16;;;;;;;7.78;3.92;;;;;;;13.22;77.27;101959.16;5043665;28;20032;-46
2021/08/22 00:51:43;;;;;;;6.97;4.32;;;;;;;13.16;77.69;101952.81;5039240;28;20533;-48
2021/08/22 00:54:09;;;;;;;6.05;4.00;;;;;;;13.12;77.69;101956.22;5041922;28;20092;-46
2021/08/22 00:56:34;;;;;;;5.40;3.70;;;;;;;13.07;77.87;101948.03;5044272;28;20053;-48
2021/08/22 00:59:17;;;;;;;5.97;3.42;;;;;;;13.01;77.94;101947.91;5040814;28;20053;-46
2021/08/22 01:01:47;;;;;;;6.40;3.97;;;;;;;13.00;78.01;101948.97;5039119;28;20100;-47
2021/08/22 01:04:20;;;;;;;5.32;3.97;;;;;;;12.99;78.28;101944.66;5043094;28;20436;-46
2021/08/22 01:07:03;;;;;;;9.27;4.45;;;;;;;12.97;78.11;101945.94;5043530;28;20358;-46
2021/08/22 01:09:31;;;;;;;5.80;3.72;;;;;;;12.88;78.83;101947.31;5040363;28;20057;-46
2021/08/22 01:12:02;;;;;;;5.57;3.60;;;;;;;12.87;78.64;101953.75;5039593;28;20033;-47
2021/08/22 01:14:35;;;;;;;7.75;3.80;;;;;;;12.86;78.51;101938.69;5043013;28;20088;-46
2021/08/22 01:17:02;;;;;;;7.40;4.05;;;;;;;12.86;78.73;101944.06;5035195;28;20025;-47
2021/08/22 01:19:33;;;;;;;6.30;3.80;;;;;;;12.83;78.80;101941.84;5042233;28;20110;-46
2021/08/22 01:22:00;;;;;;;5.75;3.83;;;;;;;12.76;79.20;101928.53;5041261;28;20025;-46
2021/08/22 01:24:27;;;;;;;4.47;4.05;;;;;;;12.73;79.51;101939.72;5040247;28;20031;-48
2021/08/22 01:26:55;;;;;;;7.35;3.92;;;;;;;12.63;79.80;101932.25;5043766;28;20042;-46
2021/08/22 01:29:27;;;;;;;4.53;3.97;;;;;;;12.62;79.98;101927.09;5042140;28;20083;-47
2021/08/22 01:31:54;;;;;;;7.22;4.20;;;;;;;12.65;80.03;101930.13;5043531;28;20052;-47
2021/08/22 01:34:21;;;;;;;10.57;4.38;;;;;;;12.66;80.28;101926.41;5038307;28;20475;-46
2021/08/22 01:36:47;;;;;;;7.95;3.95;;;;;;;12.72;80.11;101927.31;5041174;28;20029;-46
2021/08/22 01:39:14;;;;;;;7.78;4.20;;;;;;;12.78;79.96;101930.97;5042588;28;20025;-46
2021/08/22 01:41:41;;;;;;;7.97;3.97;;;;;;;12.86;79.81;101923.34;5041641;28;20025;-47
2021/08/22 01:44:08;;;;;;;5.75;4.00;;;;;;;12.90;80.00;101926.38;5042747;28;20024;-47
2021/08/22 01:46:37;;;;;;;5.78;4.32;;;;;;;12.97;79.92;101925.22;5038464;28;20021;-46
2021/08/22 01:49:05;;;;;;;5.13;3.63;;;;;;;13.04;79.87;101921.59;5041315;28;20040;-46
2021/08/22 01:51:31;;;;;;;5.35;3.65;;;;;;;13.06;80.17;101922.16;5036008;28;20025;-46
2021/08/22 01:54:04;;;;;;;6.03;3.88;;;;;;;13.10;80.27;101915.25;5041460;28;20053;-47
2021/08/22 01:56:30;;;;;;;9.45;3.95;;;;;;;13.13;80.41;101912.13;5042377;28;20036;-47
2021/08/22 01:58:56;;;;;;;6.07;4.07;;;;;;;13.16;80.41;101906.25;5043806;28;20124;-46
2021/08/22 02:01:22;;;;;;;6.10;3.40;;;;;;;13.19;80.12;101903.94;5041242;28;20499;-47
2021/08/22 02:03:55;;;;;;;7.10;3.85;;;;;;;13.22;80.21;101908.03;5044199;28;20040;-46
2021/08/22 02:06:31;;;;;;;5.35;3.95;;;;;;;13.24;80.27;101908.59;5039274;28;20047;-45
2021/08/22 02:09:01;;;;;;;6.63;4.00;;;;;;;13.24;80.49;101913.97;5040771;28;20075;-46
2021/08/22 02:11:39;;;;;;;9.50;3.72;;;;;;;13.19;80.60;101913.88;5042062;28;20558;-47
2021/08/22 02:14:07;;;;;;;7.07;3.75;;;;;;;13.22;80.50;101911.53;5039131;28;20124;-47
2021/08/22 02:16:35;;;;;;;5.03;3.83;;;;;;;13.24;80.54;101913.97;5038965;28;20089;-46
2021/08/22 02:19:01;;;;;;;7.22;4.07;;;;;;;13.25;80.76;101915.63;5040226;28;20021;-46
2021/08/22 02:21:27;;;;;;;5.18;3.42;;;;;;;13.25;80.56;101912.94;5041391;28;20104;-45
2021/08/22 02:23:54;;;;;;;5.55;3.67;;;;;;;13.28;80.60;101913.28;5043758;28;20039;-46
2021/08/22 02:26:22;;;;;;;4.32;3.40;;;;;;;13.31;80.78;101906.63;5041739;28;20361;-49
2021/08/22 02:28:55;;;;;;;6.38;3.70;;;;;;;13.32;80.87;101919.00;5043626;28;20086;-46
2021/08/22 02:31:21;;;;;;;8.82;4.10;;;;;;;13.38;80.64;101915.34;5039841;28;20029;-46
2021/08/22 02:33:47;;;;;;;5.10;3.90;;;;;;;13.40;80.63;101905.16;5038297;28;20034;-46
2021/08/22 02:36:12;;;;;;;5.40;4.13;;;;;;;13.39;80.66;101892.75;5039048;28;20021;-47
2021/08/22 02:38:38;;;;;;;5.57;3.88;;;;;;;13.36;80.78;101890.56;5042732;28;20040;-47
2021/08/22 02:41:03;;;;;;;6.38;4.22;;;;;;;13.30;81.12;101889.66;5042525;28;20063;-46
2021/08/22 02:43:29;;;;;;;6.95;3.67;;;;;;;13.24;81.22;101887.06;5040777;28;20036;-48
2021/08/22 02:45:54;;;;;;;7.28;4.30;;;;;;;13.16;81.48;101890.09;5042767;28;20060;-46
2021/08/22 02:48:19;;;;;;;7.22;3.90;;;;;;;13.14;81.53;101889.53;5041522;28;20160;-46
2021/08/22 02:50:45;;;;;;;6.05;3.90;;;;;;;13.11;81.76;101882.75;5040261;28;20025;-46
2021/08/22 02:53:10;;;;;;;6.95;3.85;;;;;;;13.02;82.25;101878.78;5035660;28;20029;-45
2021/08/22 02:55:36;;;;;;;6.10;4.03;;;;;;;12.96;82.37;101867.09;5042040;28;20020;-46
2021/08/22 02:58:02;;;;;;;7.07;4.60;;;;;;;12.84;82.99;101866.28;5041948;28;20506;-46
2021/08/22 03:00:28;;;;;;;8.25;3.92;;;;;;;12.82;83.32;101867.59;5039392;28;20530;-46
2021/08/22 03:02:53;;;;;;;6.85;4.03;;;;;;;12.81;83.19;101871.34;5040945;28;20028;-47
2021/08/22 03:05:19;;;;;;;7.00;4.20;;;;;;;12.75;83.67;101866.88;5041564;28;20033;-46
2021/08/22 03:07:44;;;;;;;6.60;4.10;;;;;;;12.74;83.50;101866.06;5042908;28;20037;-46
2021/08/22 03:10:11;;;;;;;9.55;4.80;;;;;;;12.73;83.59;101864.41;5042194;28;20086;-47
2021/08/22 03:12:36;;;;;;;6.97;4.10;;;;;;;12.69;83.63;101858.69;5040722;28;20044;-47
2021/08/22 03:15:07;;;;;;;7.68;4.80;;;;;;;12.68;83.52;101861.63;5040405;28;20029;-46
2021/08/22 03:17:33;;;;;;;7.80;4.20;;;;;;;12.67;83.73;101868.06;5036897;28;20111;-46
2021/08/22 03:20:02;;;;;;;6.93;4.80;;;;;;;12.65;83.79;101870.16;5042498;28;20071;-46
2021/08/22 03:22:28;;;;;;;6.05;4.03;;;;;;;12.62;83.75;101867.94;5040412;28;20509;-46
2021/08/22 03:24:53;;;;;;;7.25;4.18;;;;;;;12.60;83.82;101870.88;5035538;28;20026;-46
2021/08/22 03:27:19;;;;;;;6.55;3.88;;;;;;;12.60;83.90;101867.38;5041138;28;20033;-47
2021/08/22 03:29:44;;;;;;;6.32;4.03;;;;;;;12.60;83.98;101873.56;5038516;28;20025;-47
2021/08/22 03:32:10;;;;;;;8.80;4.50;;;;;;;12.56;83.94;101866.19;5040852;28;20124;-45
2021/08/22 03:34:35;;;;;;;10.00;4.10;;;;;;;12.55;84.13;101861.84;5042588;28;20126;-47
2021/08/22 03:37:01;;;;;;;7.70;4.20;;;;;;;12.50;84.69;101869.81;5047247;28;20474;-46
2021/08/22 03:39:26;;;;;;;10.05;4.68;;;;;;;12.43;85.75;101880.69;5045257;28;20521;-46
2021/08/22 03:41:52;;;;;;;8.02;4.75;;;;;;;12.50;85.25;101881.38;5045366;28;20060;-46
2021/08/22 03:44:17;;;;;;;7.00;4.38;;;;;;;12.54;84.85;101876.34;5045665;28;20075;-47
2021/08/22 03:46:43;;;;;;;5.20;4.22;;;;;;;12.61;84.20;101885.13;5046284;28;20025;-46
2021/08/22 03:49:08;;;;;;;6.82;4.28;;;;;;;12.65;84.23;101881.75;5041282;28;20530;-45
2021/08/22 03:51:34;;;;;;;6.10;4.22;;;;;;;12.67;84.22;101881.50;5044894;28;20045;-46
2021/08/22 03:53:59;;;;;;;7.00;4.20;;;;;;;12.63;84.75;101877.66;5041071;28;20040;-47
2021/08/22 03:56:25;;;;;;;8.50;5.05;;;;;;;12.60;84.84;101886.19;5042771;28;20025;-47
2021/08/22 03:58:50;;;;;;;7.35;4.40;;;;;;;12.66;84.40;101887.94;5042993;28;20021;-47
2021/08/22 04:01:16;;;;;;;6.38;3.83;;;;;;;12.67;84.46;101886.88;5042558;28;20021;-46
2021/08/22 04:03:41;;;;;;;8.55;4.55;;;;;;;12.68;84.34;101888.50;5057710;28;20037;-47
2021/08/22 04:06:07;;;;;;;9.60;5.22;;;;;;;12.70;84.21;101892.59;5041997;28;20048;-46
2021/08/22 04:08:36;;;;;;;8.93;4.47;;;;;;;12.70;84.30;101894.47;5041487;28;20041;-46
2021/08/22 04:11:02;;;;;;;5.57;4.43;;;;;;;12.73;84.26;101885.94;5043267;28;20016;-47
2021/08/22 04:13:27;;;;;;;6.32;4.30;;;;;;;12.77;84.03;101887.13;5042525;28;20426;-47
2021/08/22 04:15:53;;;;;;;6.63;4.22;;;;;;;12.78;83.91;101885.25;5046270;28;20017;-47
2021/08/22 04:18:18;;;;;;;7.65;4.30;;;;;;;12.81;84.07;101888.28;5044347;28;20033;-47
2021/08/22 04:20:44;;;;;;;8.13;4.72;;;;;;;12.77;84.60;101897.06;5042890;28;20414;-47
2021/08/22 04:23:10;;;;;;;5.88;4.30;;;;;;;12.83;84.18;101888.88;5036830;28;20029;-46
2021/08/22 04:25:36;;;;;;;6.25;4.75;;;;;;;12.88;83.97;101885.47;5043975;28;20376;-46
2021/08/22 04:28:02;;;;;;;6.55;4.75;;;;;;;12.89;84.18;101885.22;5045624;28;20036;-47
2021/08/22 04:30:27;;;;;;;8.07;4.38;;;;;;;12.82;85.20;101889.09;5041761;28;20033;-46
2021/08/22 04:32:53;;;;;;;8.23;4.63;;;;;;;12.79;85.75;101894.97;5045391;28;20025;-47
2021/08/22 04:35:18;;;;;;;6.45;4.43;;;;;;;12.87;84.96;101886.50;5044688;28;20172;-46
2021/08/22 04:37:44;;;;;;;5.93;4.47;;;;;;;12.97;84.40;101884.88;5044481;28;20079;-45
2021/08/22 04:40:09;;;;;;;9.82;5.00;;;;;;;12.92;85.59;101879.38;5042758;28;20033;-46
2021/08/22 04:42:35;;;;;;;7.45;4.80;;;;;;;12.93;85.67;101886.41;5043397;28;20253;-46
2021/08/22 04:45:02;;;;;;;6.45;4.68;;;;;;;12.98;85.65;101881.13;5042023;28;20458;-45
2021/08/22 04:47:28;;;;;;;7.15;4.40;;;;;;;13.04;85.83;101884.75;5037607;28;20299;-47
2021/08/22 04:49:53;;;;;;;6.60;5.15;;;;;;;13.09;85.34;101871.38;5045651;28;20491;-48
2021/08/22 04:52:19;;;;;;;7.13;4.90;;;;;;;13.07;85.61;101864.59;5043280;28;20155;-46
2021/08/22 04:54:44;;;;;;;9.43;4.60;;;;;;;13.14;85.18;101868.81;5042895;28;20048;-46
2021/08/22 04:57:10;;;;;;;5.90;4.35;;;;;;;13.22;84.77;101868.47;5044247;28;20056;-47
2021/08/22 04:59:35;;;;;;;6.40;4.75;;;;;;;13.26;84.62;101872.31;5044230;28;20041;-48
2021/08/22 05:02:01;;;;;;;11.38;5.18;;;;;;;13.26;85.16;101879.56;5041934;28;20108;-46
2021/08/22 05:04:28;;;;;;;6.32;4.75;;;;;;;13.37;84.40;101873.34;5038298;28;20036;-47
2021/08/22 05:06:54;;;;;;;6.75;4.55;;;;;;;13.33;84.83;101874.06;5043838;28;20016;-47
2021/08/22 05:09:20;;;;;;;7.30;4.57;;;;;;;13.41;84.52;101865.59;5035118;28;20497;-46
2021/08/22 05:11:45;;;;;;;8.27;4.43;;;;;;;13.34;85.28;101867.63;5042574;28;20024;-46
2021/08/22 05:14:10;;;;;;;7.60;4.28;;;;;;;13.47;84.85;101864.66;5040506;28;20099;-46
2021/08/22 05:16:36;;;;;;;7.90;4.55;;;;;;;13.63;83.80;101863.06;5041859;28;20029;-47
2021/08/22 05:19:01;;;;;;;6.07;4.13;;;;;;;13.74;83.32;101867.56;5043622;28;20039;-46
2021/08/22 05:21:27;;;;;;;6.50;4.68;;;;;;;13.69;83.36;101859.41;5044106;28;20085;-45
2021/08/22 05:23:53;;;;;;;6.88;4.22;;;;;;;13.74;83.04;101862.19;5043346;28;20041;-46
2021/08/22 05:26:19;;;;;;;6.22;4.10;;;;;;;13.78;82.82;101861.47;5038830;28;20029;-46
2021/08/22 05:28:44;;;;;;;6.72;4.30;;;;;;;13.84;82.20;101852.44;5043413;28;20495;-46
2021/08/22 05:31:09;;;;;;;6.10;4.05;;;;;;;13.83;82.73;101847.28;5044195;28;20032;-46
2021/08/22 05:33:35;;;;;;;6.50;4.13;;;;;;;13.84;82.62;101838.16;5041609;28;20033;-46
2021/08/22 05:36:18;;;;;;;4.90;4.00;;;;;;;13.89;82.55;101830.97;5044081;28;20017;-46
2021/08/22 05:38:44;;;;;;;6.85;4.55;;;;;;;13.93;82.43;101843.94;5042512;28;20441;-46
2021/08/22 05:41:09;;;;;;;5.28;3.80;;;;;;;14.03;82.17;101836.84;5043641;28;20124;-49
2021/08/22 05:43:35;;;;;;;6.65;3.97;;;;;;;14.04;82.05;101835.78;5042677;28;20107;-46
2021/08/22 05:46:00;;;;;;;6.50;3.85;;;;;;;14.15;81.57;101834.88;5043541;28;20360;-46
2021/08/22 05:48:26;;;;;;;5.30;3.72;;;;;;;14.17;81.76;101843.53;5041150;28;20033;-47
2021/08/22 05:50:52;;;;;;;5.60;4.18;;;;;;;14.17;81.88;101838.13;5042316;28;20021;-46
2021/08/22 05:53:17;;;;;;;5.82;4.35;;;;;;;14.28;81.27;101833.72;5042935;28;20425;-46
2021/08/22 05:55:43;;;;;;;5.03;4.07;;;;;;;14.39;81.02;101834.72;5036950;28;20020;-47
2021/08/22 05:58:08;;;;;;;6.32;3.97;;;;;;;14.43;81.03;101846.63;5042425;28;20056;-46
2021/08/22 06:00:36;;;;;;;6.03;4.00;;;;;;;14.58;80.47;101849.59;5041041;28;20033;-48
2021/08/22 06:03:01;;;;;;;7.68;3.83;;;;;;;14.62;80.46;101853.41;5041200;28;20032;-46
2021/08/22 06:05:27;;;;;;;5.88;4.13;;;;;;;14.61;80.47;101854.50;5043184;28;20033;-46
2021/08/22 06:07:52;;;;;;;5.28;4.05;;;;;;;14.64;80.38;101848.59;5041184;28;20017;-46
2021/08/22 06:10:18;;;;;;;8.30;3.70;;;;;;;14.69;80.03;101840.56;5042231;28;20029;-46
2021/08/22 06:12:43;;;;;;;5.90;4.18;;;;;;;14.70;79.60;101849.47;5041889;28;20116;-46
2021/08/22 06:15:10;;;;;;;6.82;3.83;;;;;;;14.75;79.79;101844.16;5042694;28;20033;-46
2021/08/22 06:17:35;;;;;;;7.65;3.97;;;;;;;14.75;79.64;101844.16;5043161;28;20090;-47
2021/08/22 06:20:01;;;;;;;5.75;3.88;;;;;;;14.77;80.33;101842.03;5039105;28;20446;-46
2021/08/22 06:22:26;;;;;;;5.97;3.17;;;;;;;14.88;80.05;101842.97;5039856;28;20024;-46
2021/08/22 06:24:52;;;;;;;5.40;3.40;;;;;;;14.92;79.18;101838.72;5043034;28;20040;-46
2021/08/22 06:27:17;;;;;;;10.70;3.25;;;;;;;14.99;79.31;101845.56;5042421;28;20469;-47
2021/08/22 06:29:42;;;;;;;5.07;3.72;;;;;;;14.95;78.94;101849.00;5042793;28;20033;-46
2021/08/22 06:32:08;;;;;;;6.38;3.60;;;;;;;15.12;78.46;101849.78;5038681;28;20025;-46
2021/08/22 06:34:34;;;;;;;4.13;2.85;;;;;;;15.27;78.16;101855.34;5041592;28;20029;-46
2021/08/22 06:36:59;;;;;;;4.82;3.40;;;;;;;15.59;77.18;101851.94;5042952;28;20032;-46
2021/08/22 06:39:24;;;;;;;4.95;2.90;;;;;;;15.83;76.39;101855.16;5041240;28;20068;-46
2021/08/22 06:41:50;;;;;;;7.55;3.35;;;;;;;15.94;75.61;101846.06;5042647;28;20522;-46
2021/08/22 06:44:15;;;;;;;6.28;3.20;;;;;;;16.06;75.73;101846.72;5042459;28;20021;-48
2021/08/22 06:46:41;;;;;;;4.40;3.20;;;;;;;16.31;75.13;101846.06;5037012;28;20161;-46
2021/08/22 06:49:07;;;;;;;5.93;3.13;;;;;;;16.56;74.18;101843.56;5040190;28;20037;-47
2021/08/22 06:51:34;;;;;;;4.85;3.15;;;;;;;16.94;72.88;101844.34;5056218;28;20039;-47
2021/08/22 06:53:59;;;;;;;5.00;3.63;;;;;;;17.17;72.05;101852.00;5042840;28;20040;-46
2021/08/22 06:56:25;;;;;;;4.97;3.17;;;;;;;17.10;71.33;101854.16;5040727;28;20029;-46
2021/08/22 06:58:51;;;;;;;4.03;2.50;;;;;;;17.06;71.27;101853.06;5041972;28;20033;-46
2021/08/22 07:01:17;;;;;;;4.30;2.95;;;;;;;17.20;70.86;101848.75;5039996;28;20471;-47
2021/08/22 07:03:42;;;;;;;3.20;2.80;;;;;;;17.41;70.81;101843.41;5043120;28;20475;-47
2021/08/22 07:06:08;;;;;;;4.95;2.53;;;;;;;17.75;69.82;101843.78;5039108;28;20365;-47
2021/08/22 07:08:33;;;;;;;7.55;2.92;;;;;;;18.11;68.80;101841.88;5037620;28;20171;-46
2021/08/22 07:10:58;;;;;;;2.72;2.47;;;;;;;18.47;67.49;101833.72;5042873;28;20036;-47
2021/08/22 07:13:24;;;;;;;5.18;2.40;;;;;;;18.58;66.80;101846.19;5037894;28;20422;-46
2021/08/22 07:15:50;;;;;;;3.33;2.38;;;;;;;18.72;65.75;101844.56;5040872;28;20040;-47
2021/08/22 07:18:15;;;;;;;4.05;2.40;;;;;;;18.87;64.87;101838.28;5041543;28;20025;-47
2021/08/22 07:20:41;;;;;;;3.88;2.50;;;;;;;18.95;64.22;101837.69;5041577;28;20091;-47
2021/08/22 07:23:06;;;;;;;3.33;2.55;;;;;;;19.22;63.58;101840.03;5039409;28;20025;-46
2021/08/22 07:25:32;;;;;;;3.47;2.28;;;;;;;19.35;62.86;101839.38;5036285;28;20284;-46
2021/08/22 07:27:57;;;;;;;3.47;2.20;;;;;;;19.39;62.72;101824.16;5039651;28;20040;-46
2021/08/22 07:30:25;;;;;;;3.95;2.78;;;;;;;19.53;63.18;101830.59;5040765;28;20237;-47
2021/08/22 07:32:50;;;;;;;2.95;2.15;;;;;;;19.61;62.17;101830.03;5040440;28;20063;-47
2021/08/22 07:35:16;;;;;;;3.00;2.30;;;;;;;19.75;60.93;101822.06;5038573;28;20492;-47
2021/08/22 07:37:41;;;;;;;3.75;2.38;;;;;;;19.89;60.90;101817.56;5041050;28;20028;-47
2021/08/22 07:40:07;;;;;;;4.70;2.40;;;;;;;20.15;60.70;101823.63;5041120;28;20275;-47
2021/08/22 07:42:33;;;;;;;6.93;2.50;;;;;;;20.32;59.93;101825.09;5039184;28;20056;-47
2021/08/22 07:44:58;;;;;;;4.85;2.28;;;;;;;20.50;60.05;101816.22;5039749;28;20025;-47
2021/08/22 07:47:24;;;;;;;3.42;2.10;;;;;;;20.56;59.61;101816.97;5036981;28;20115;-46
2021/08/22 07:49:49;;;;;;;2.35;2.00;;;;;;;20.46;58.79;101812.44;5042225;28;20391;-46
2021/08/22 07:52:15;;;;;;;5.53;1.98;;;;;;;20.57;59.07;101807.72;5036514;28;20234;-47
2021/08/22 07:54:40;;;;;;;3.33;2.22;;;;;;;20.63;58.10;101810.06;5034202;28;20041;-47
2021/08/22 07:57:06;;;;;;;2.90;2.00;;;;;;;20.92;57.41;101807.28;5039972;28;20025;-48
2021/08/22 07:59:31;;;;;;;2.55;2.15;;;;;;;20.86;57.40;101811.19;5033394;28;20033;-48
2021/08/22 08:01:57;;;;;;;4.20;2.33;;;;;;;20.76;57.81;101809.38;5040510;28;20056;-47
2021/08/22 08:04:23;;;;;;;3.92;1.80;;;;;;;21.15;56.89;101813.78;5036305;28;20068;-47
2021/08/22 08:06:48;;;;;;;4.28;1.88;;;;;;;21.39;55.55;101814.59;5039182;28;20048;-47
2021/08/22 08:09:14;;;;;;;2.10;1.90;;;;;;;21.52;55.90;101809.47;5038877;28;20057;-47
2021/08/22 08:11:40;;;;;;;2.22;1.90;;;;;;;21.59;54.42;101805.28;5035887;28;20036;-47
2021/08/22 08:14:06;;;;;;;3.30;2.25;;;;;;;21.69;55.48;101798.84;5037786;28;20488;-47
2021/08/22 08:16:31;;;;;;;3.42;2.40;;;;;;;22.05;55.49;101806.47;5036242;28;20478;-48
2021/08/22 08:18:57;;;;;;;4.45;1.92;;;;;;;22.31;53.71;101810.38;5039412;28;20037;-47
2021/08/22 08:21:22;;;;;;;1.70;1.60;;;;;;;22.28;53.02;101808.25;5041746;28;20529;-46
2021/08/22 08:23:48;;;;;;;3.63;2.20;;;;;;;22.08;53.18;101811.31;5042757;28;20056;-48
2021/08/22 08:26:14;;;;;;;4.40;1.60;;;;;;;22.05;53.30;101812.72;5041995;28;20029;-47
2021/08/22 08:28:40;;;;;;;3.42;2.33;;;;;;;22.12;53.89;101813.16;5038800;28;20482;-47
2021/08/22 08:31:05;;;;;;;4.63;2.08;;;;;;;22.27;53.72;101810.19;5041699;28;20029;-47
2021/08/22 08:33:31;;;;;;;5.55;2.00;;;;;;;22.29;53.49;101809.88;5040763;28;20152;-49
2021/08/22 08:35:56;;;;;;;2.33;1.60;;;;;;;22.41;52.39;101815.63;5038878;28;20028;-47
2021/08/22 08:38:22;;;;;;;2.50;1.88;;;;;;;22.52;53.05;101811.59;5037262;28;20111;-47
2021/08/22 08:40:48;;;;;;;2.72;1.80;;;;;;;22.84;51.98;101812.66;5040166;28;20280;-47
2021/08/22 08:43:15;;;;;;;2.83;1.90;;;;;;;23.12;51.69;101814.22;5038161;28;20024;-47
2021/08/22 08:45:55;;;;;;;4.93;3.20;;;;;;;23.31;48.85;101799.59;5043407;28;20493;-47
2021/08/22 08:48:36;;;;;;;2.97;1.90;;;;;;;23.54;48.93;101808.66;5041293;28;20033;-47
2021/08/22 08:51:13;;;;;;;2.38;1.52;;;;;;;23.59;48.49;101803.09;5044012;28;20021;-47
2021/08/22 08:53:53;;;;;;;3.30;1.85;;;;;;;23.50;47.74;101802.97;5042946;28;20126;-48
2021/08/22 08:56:46;;;;;;;1.73;1.63;;;;;;;23.83;48.77;101800.84;5038657;28;20029;-47
2021/08/22 08:59:11;;;;;;;3.72;1.70;;;;;;;24.00;48.67;101795.47;5035707;28;20045;-48
2021/08/22 09:01:40;;;;;;;2.80;1.80;;;;;;;24.06;48.45;101798.91;5043167;28;20028;-47
2021/08/22 09:04:15;;;;;;;4.40;2.15;;;;;;;23.62;48.94;101797.78;5039417;28;20028;-47
2021/08/22 09:06:57;;;;;;;4.15;2.03;;;;;;;23.69;49.02;101800.88;5041555;28;20022;-48
2021/08/22 09:09:25;;;;;;;3.80;2.05;;;;;;;23.81;49.07;101801.16;5041179;28;20036;-47
2021/08/22 09:12:17;;;;;;;1.95;1.63;;;;;;;23.94;48.23;101795.91;5044063;28;20033;-47
2021/08/22 09:15:20;;;;;;;2.55;1.60;;;;;;;24.17;47.87;101796.69;5038968;28;20040;-47
2021/08/22 09:18:33;;;;;;;2.88;1.75;;;;;;;23.49;47.79;101791.22;5042952;28;20029;-47
2021/08/22 09:21:37;;;;;;;4.05;1.70;;;;;;;24.33;47.48;101784.22;4991568;28;20038;-47
2021/08/22 09:24:39;;;;;;;2.72;1.42;;;;;;;24.42;45.45;101779.59;5045202;28;20020;-47
2021/08/22 09:27:36;;;;;;;3.05;1.80;;;;;;;24.53;45.51;101774.63;5041406;28;20017;-49
2021/08/22 09:30:38;;;;;;;2.08;1.20;;;;;;;24.20;45.36;101779.63;5042099;28;20020;-47
2021/08/22 09:33:58;;;;;;;3.50;1.63;;;;;;;23.97;44.54;101778.88;5040663;28;20239;-49
2021/08/22 09:36:23;;;;;;;1.80;1.58;;;;;;;24.13;45.82;101782.81;4981213;28;20030;-47
2021/08/22 09:39:27;;;;;;;2.40;1.30;;;;;;;24.27;45.42;101778.06;5036174;28;20037;-47
2021/08/22 09:42:04;;;;;;;3.22;1.60;;;;;;;24.45;46.92;101768.00;5007228;28;20071;-47
2021/08/22 09:45:07;;;;;;;1.98;1.45;;;;;;;24.53;46.40;101769.16;5040836;28;20152;-48
2021/08/22 09:47:51;;;;;;;2.58;1.65;;;;;;;24.44;47.38;101766.41;5040439;28;20031;-47
2021/08/22 09:50:54;;;;;;;4.45;1.83;;;;;;;24.56;47.77;101776.72;5037998;28;20029;-47
2021/08/22 09:53:50;;;;;;;3.38;2.20;;;;;;;23.89;48.21;101774.97;5036230;28;20112;-48
2021/08/22 09:56:34;;;;;;;4.47;2.17;;;;;;;23.99;47.07;101773.88;5051912;28;20483;-49
2021/08/22 09:59:30;;;;;;;7.85;2.10;;;;;;;23.90;48.12;101773.03;5034993;28;20534;-47
2021/08/22 10:02:29;;;;;;;3.90;1.90;;;;;;;24.71;46.80;101752.44;5034535;28;20177;-48
2021/08/22 10:05:18;;;;;;;4.13;1.90;;;;;;;24.93;46.25;101751.50;5032602;28;20040;-48
2021/08/22 10:07:50;;;;;;;2.45;1.70;;;;;;;24.68;44.64;101755.03;5017273;28;20194;-48
2021/08/22 10:10:44;;;;;;;5.88;2.58;;;;;;;24.80;45.31;101759.88;5033536;28;20033;-47
2021/08/22 10:13:10;;;;;;;4.25;1.77;;;;;;;25.15;45.08;101758.84;5032148;28;20031;-47
2021/08/22 10:15:35;;;;;;;3.65;1.67;;;;;;;25.46;45.28;101757.84;5032114;28;20581;-47
2021/08/22 10:18:01;;;;;;;2.70;1.80;;;;;;;25.33;44.71;101762.38;5034444;28;20021;-47
2021/08/22 10:20:43;;;;;;;2.47;1.60;;;;;;;24.89;45.42;101764.25;5034244;28;20670;-48
2021/08/22 10:23:43;;;;;;;2.95;1.52;;;;;;;25.38;44.33;101751.25;5035922;28;20030;-47
2021/08/22 10:26:50;;;;;;;2.80;1.75;;;;;;;25.39;44.26;101752.84;5036140;28;20032;-47
2021/08/22 10:29:20;;;;;;;2.80;1.60;;;;;;;25.71;44.25;101737.81;5032353;28;20448;-48
2021/08/22 10:31:49;;;;;;;2.65;1.50;;;;;;;26.09;45.73;101742.56;5033380;28;20048;-47
2021/08/22 10:34:21;;;;;;;5.10;3.45;;;;;;;26.30;42.65;101735.19;5037369;28;20032;-47
2021/08/22 10:36:48;;;;;;;3.38;2.00;;;;;;;26.33;42.94;101723.53;5037314;28;20024;-47
2021/08/22 10:39:30;;;;;;;4.70;2.97;;;;;;;26.52;42.95;101733.31;5036592;28;20048;-47
2021/08/22 10:42:00;;;;;;;2.90;1.80;;;;;;;26.20;42.63;101728.09;5028095;28;20087;-47
2021/08/22 10:44:41;;;;;;;5.65;1.85;;;;;;;26.41;41.91;101732.91;5023891;28;20881;-48
2021/08/22 10:47:11;;;;;;;3.50;2.13;;;;;;;26.59;41.08;101728.94;5030350;28;20518;-47
2021/08/22 10:49:52;;;;;;;2.42;1.65;;;;;;;25.99;42.43;101709.94;5031812;28;20322;-47
2021/08/22 10:52:33;;;;;;;1.75;1.65;;;;;;;25.17;42.83;101718.19;5027786;28;20044;-47
2021/08/22 10:55:11;;;;;;;2.25;2.05;;;;;;;25.76;43.71;101714.88;5031693;28;20040;-48
2021/08/22 10:57:45;;;;;;;2.47;1.70;;;;;;;26.47;42.96;101710.41;5033042;28;20021;-48
2021/08/22 11:00:23;;;;;;;;;;;;;;;26.32;43.48;101707.38;5034596;28;20032;-48
2021/08/22 11:02:50;;;;;;;2.67;1.73;;;;;;;26.57;42.21;101708.38;5031712;28;20077;-48
2021/08/22 11:05:17;;;;;;;4.57;1.85;;;;;;;26.50;41.76;101711.66;5033630;28;20491;-48
2021/08/22 11:07:46;;;;;;;3.97;1.92;;;;;;;26.22;42.24;101707.78;5032074;28;20021;-47
2021/08/22 11:10:15;;;;;;;1.98;1.63;;;;;;;26.29;41.65;101702.56;5034719;28;20027;-48
2021/08/22 11:12:42;;;;;;;4.25;1.90;;;;;;;26.52;41.52;101709.38;5036092;28;20063;-47
2021/08/22 11:15:21;;;;;;;3.10;1.48;;;;;;;26.77;41.88;101702.94;5033755;28;20029;-47
2021/08/22 11:17:57;;;;;;;3.42;2.08;;;;;;;26.88;41.81;101705.25;5033699;28;20126;-49
2021/08/22 11:20:29;;;;;;;3.25;2.00;;;;;;;27.35;41.56;101709.41;5031583;28;20313;-49
2021/08/22 11:23:17;;;;;;;3.70;1.77;;;;;;;27.86;40.25;101703.72;5033027;28;20027;-47
2021/08/22 11:25:45;;;;;;;3.30;1.80;;;;;;;27.76;40.33;101704.97;5032015;28;20159;-49
2021/08/22 11:28:13;;;;;;;4.28;1.92;;;;;;;28.20;39.82;101702.50;5032283;28;20463;-47
2021/08/22 11:30:41;;;;;;;3.65;2.13;;;;;;;28.47;39.26;101696.28;5031495;28;20158;-48
2021/08/22 11:33:08;;;;;;;3.42;2.30;;;;;;;28.33;37.76;101700.53;5033004;28;20388;-48
2021/08/22 11:35:51;;;;;;;3.00;1.92;;;;;;;28.53;38.88;101697.66;5033010;28;20090;-49